createdAt,value
2023-08-14T00:01:24.313Z,94.11
2023-08-14T00:11:26.848Z,94.24
2023-08-14T00:21:30.794Z,94.97
2023-08-14T00:31:33.530Z,95.19
2023-08-14T00:41:38.161Z,96.31
2023-08-14T00:51:40.698Z,96.34
2023-08-14T01:01:44.505Z,96.58
2023-08-14T01:11:55.872Z,97.34
2023-08-14T01:22:04.717Z,100.00
2023-08-14T01:32:08.712Z,100.00
2023-08-14T01:42:15.853Z,96.73
2023-08-14T01:52:20.235Z,94.48
2023-08-14T02:02:22.923Z,99.69
2023-08-14T02:12:26.857Z,99.35
2023-08-14T02:22:29.332Z,99.87
2023-08-14T02:32:33.335Z,96.65
2023-08-14T02:42:35.897Z,94.86
2023-08-14T02:52:39.929Z,94.85
2023-08-14T03:02:42.842Z,94.48
2023-08-14T03:12:46.831Z,93.47
2023-08-14T03:22:49.336Z,91.78
2023-08-14T03:32:53.306Z,91.87
2023-08-14T03:42:55.973Z,89.90
2023-08-14T03:52:59.843Z,89.34
2023-08-14T04:03:03.245Z,89.06
2023-08-14T04:13:07.410Z,89.68
2023-08-14T04:23:09.902Z,89.89
2023-08-14T04:33:13.852Z,91.24
2023-08-14T04:43:16.451Z,91.29
2023-08-14T04:53:20.244Z,92.22
2023-08-14T05:03:22.802Z,92.44
2023-08-14T05:13:26.723Z,92.70
2023-08-14T05:23:29.243Z,92.14
2023-08-14T05:33:33.036Z,93.30
2023-08-14T05:43:35.580Z,93.37
2023-08-14T05:53:39.441Z,93.37
2023-08-14T06:03:44.852Z,91.23
2023-08-14T06:13:49.108Z,91.65
2023-08-14T06:23:51.819Z,90.93
2023-08-14T06:33:55.736Z,92.59
2023-08-14T06:43:58.649Z,93.70
2023-08-14T06:54:02.549Z,94.74
2023-08-14T07:04:05.318Z,95.12
2023-08-14T07:14:09.234Z,98.13
2023-08-14T07:24:13.632Z,96.04
2023-08-14T07:34:17.483Z,100.00
2023-08-14T07:44:19.964Z,100.00
2023-08-14T07:54:23.829Z,99.86
2023-08-14T08:04:26.857Z,100.00
2023-08-14T08:14:30.995Z,100.00
2023-08-14T08:24:33.555Z,100.00
2023-08-14T08:34:37.710Z,100.00
2023-08-14T08:44:43.046Z,100.00
2023-08-14T08:54:47.387Z,98.65
2023-08-14T09:04:49.881Z,95.03
2023-08-14T09:15:05.106Z,90.84
2023-08-14T09:25:08.707Z,92.00
2023-08-14T09:35:12.622Z,83.34
2023-08-14T09:45:15.571Z,81.88
2023-08-14T09:55:19.635Z,81.31
2023-08-14T10:05:22.676Z,74.31
2023-08-14T10:15:28.161Z,76.82
2023-08-14T10:25:31.039Z,74.36
2023-08-14T10:35:45.265Z,74.28
2023-08-14T10:45:47.786Z,71.68
2023-08-14T10:55:51.769Z,70.66
2023-08-14T11:05:54.369Z,68.25
2023-08-14T11:15:59.128Z,64.02
2023-08-14T11:26:01.682Z,69.91
2023-08-14T11:36:11.704Z,65.46
2023-08-14T11:46:14.636Z,72.11
2023-08-14T11:56:19.119Z,75.48
2023-08-14T12:06:21.777Z,69.16
2023-08-14T12:16:28.440Z,69.05
2023-08-14T12:26:37.533Z,71.27
2023-08-14T12:36:41.355Z,68.02
2023-08-14T12:46:43.942Z,72.56
2023-08-14T12:56:47.900Z,80.05
2023-08-14T13:06:50.771Z,79.45
2023-08-14T13:16:54.655Z,71.47
2023-08-14T13:27:01.644Z,66.39
2023-08-14T13:37:12.279Z,73.67
2023-08-14T13:47:16.481Z,72.66
2023-08-14T13:57:22.276Z,68.20
2023-08-14T14:07:27.301Z,68.03
2023-08-14T14:17:33.304Z,65.56
2023-08-14T14:27:35.875Z,67.62
2023-08-14T14:37:39.704Z,69.19
2023-08-14T14:47:42.269Z,79.53
2023-08-14T14:57:46.144Z,71.09
2023-08-14T15:07:50.365Z,69.45
2023-08-14T15:17:54.252Z,69.72
2023-08-14T15:27:56.890Z,65.15
2023-08-14T15:38:00.969Z,65.72
2023-08-14T15:48:03.580Z,65.84
2023-08-14T15:58:07.490Z,64.85
2023-08-14T16:08:09.991Z,60.00
2023-08-14T16:18:14.002Z,62.81
2023-08-14T16:28:16.521Z,64.87
2023-08-14T16:38:20.394Z,64.96
2023-08-14T16:48:22.890Z,62.79
2023-08-14T16:58:26.744Z,65.94
2023-08-14T17:08:29.336Z,67.47
2023-08-14T17:18:33.172Z,69.73
2023-08-14T17:28:35.699Z,70.75
2023-08-14T17:38:39.886Z,71.41
2023-08-14T17:48:42.458Z,73.88
2023-08-14T17:58:46.752Z,71.16
2023-08-14T18:08:49.432Z,72.56
2023-08-14T18:18:58.131Z,73.31
2023-08-14T18:29:07.007Z,71.99
2023-08-14T18:39:10.794Z,75.36
2023-08-14T18:49:13.314Z,76.99
2023-08-14T18:59:20.022Z,77.85
2023-08-14T19:09:22.497Z,78.35
2023-08-14T19:19:26.377Z,78.14
2023-08-14T19:29:28.862Z,79.46
2023-08-14T19:39:32.900Z,80.92
2023-08-14T19:49:35.535Z,80.02
2023-08-14T19:59:40.109Z,81.46
2023-08-14T20:09:42.604Z,83.12
2023-08-14T20:19:46.428Z,83.00
2023-08-14T20:29:48.893Z,83.13
2023-08-14T20:39:53.120Z,82.04
2023-08-14T20:49:55.644Z,81.70
2023-08-14T20:59:59.603Z,83.14
2023-08-14T21:10:02.364Z,84.21
2023-08-14T21:20:06.824Z,85.79
2023-08-14T21:40:13.442Z,82.19
2023-08-14T21:50:16.062Z,87.70
2023-08-14T22:00:19.979Z,87.46
2023-08-14T22:10:22.515Z,87.83
2023-08-14T22:20:26.455Z,88.92
2023-08-14T22:30:29.174Z,88.85
2023-08-14T22:40:33.246Z,89.19
2023-08-14T22:50:35.925Z,89.45
2023-08-14T23:00:40.261Z,89.24
2023-08-14T23:10:43.319Z,88.85
2023-08-14T23:20:47.181Z,90.79
2023-08-14T23:30:50.775Z,91.43
2023-08-14T23:40:54.659Z,90.70
2023-08-14T23:50:57.156Z,89.50
